createdAt,value
2022-12-14T00:03:45.668Z,87.20
2022-12-14T00:07:49.063Z,87.20
2022-12-14T00:11:50.912Z,87.40
2022-12-14T00:15:52.532Z,87.00
2022-12-14T00:19:54.939Z,87.60
2022-12-14T00:23:58.522Z,87.60
2022-12-14T00:28:00.196Z,87.50
2022-12-14T00:32:01.808Z,87.20
2022-12-14T00:36:05.195Z,87.70
2022-12-14T00:40:08.174Z,87.70
2022-12-14T00:44:09.851Z,87.90
2022-12-14T00:48:12.328Z,87.90
2022-12-14T00:52:14.098Z,87.70
2022-12-14T00:56:16.245Z,87.60
2022-12-14T01:00:18.100Z,87.70
2022-12-14T01:04:22.291Z,87.80
2022-12-14T01:08:24.232Z,88.40
2022-12-14T01:12:25.892Z,88.60
2022-12-14T01:16:27.546Z,88.30
2022-12-14T01:20:29.192Z,88.10
2022-12-14T01:24:30.882Z,88.80
2022-12-14T01:28:34.940Z,88.40
2022-12-14T01:32:36.734Z,87.80
2022-12-14T01:36:38.842Z,87.70
2022-12-14T01:40:40.851Z,87.60
2022-12-14T01:44:42.523Z,88.50
2022-12-14T01:48:45.486Z,88.10
2022-12-14T01:52:49.353Z,88.40
2022-12-14T01:56:52.251Z,88.60
2022-12-14T02:00:56.723Z,89.00
2022-12-14T02:05:02.145Z,88.20
2022-12-14T02:09:12.420Z,88.30
2022-12-14T02:13:20.522Z,87.70
2022-12-14T02:17:22.711Z,88.00
2022-12-14T02:21:57.929Z,88.50
2022-12-14T02:26:09.112Z,88.50
2022-12-14T02:30:22.729Z,88.40
2022-12-14T02:34:57.851Z,88.40
2022-12-14T02:39:07.546Z,88.60
2022-12-14T02:43:28.173Z,88.50
2022-12-14T02:47:49.382Z,88.30
2022-12-14T02:52:03.003Z,88.50
2022-12-14T02:56:10.118Z,88.60
2022-12-14T03:00:12.569Z,88.20
2022-12-14T03:04:14.883Z,88.40
2022-12-14T03:08:16.982Z,88.20
2022-12-14T03:12:20.999Z,88.50
2022-12-14T03:16:27.184Z,88.60
2022-12-14T03:20:33.016Z,89.00
2022-12-14T03:24:49.381Z,89.70
2022-12-14T03:28:55.916Z,89.80
2022-12-14T03:33:02.706Z,89.70
2022-12-14T03:37:14.776Z,90.00
2022-12-14T03:41:27.547Z,90.10
2022-12-14T03:45:49.903Z,90.20
2022-12-14T03:49:58.343Z,90.00
2022-12-14T03:54:08.702Z,90.00
2022-12-14T03:58:16.370Z,90.10
2022-12-14T04:02:40.887Z,90.00
2022-12-14T04:07:19.625Z,90.00
2022-12-14T04:11:42.129Z,90.20
2022-12-14T04:16:04.802Z,90.20
2022-12-14T04:20:27.957Z,90.10
2022-12-14T04:24:51.000Z,90.20
2022-12-14T04:29:22.669Z,90.30
2022-12-14T04:33:43.244Z,90.40
2022-12-14T04:37:52.537Z,90.50
2022-12-14T04:41:57.703Z,90.60
2022-12-14T04:46:05.505Z,90.60
2022-12-14T04:50:17.585Z,90.60
2022-12-14T04:54:22.928Z,90.80
2022-12-14T04:58:30.095Z,90.80
2022-12-14T05:03:10.327Z,91.00
2022-12-14T05:07:22.898Z,90.70
2022-12-14T05:11:54.742Z,90.70
2022-12-14T05:15:58.636Z,90.80
2022-12-14T05:20:00.248Z,90.90
2022-12-14T05:24:03.438Z,91.10
2022-12-14T05:28:05.327Z,91.00
2022-12-14T05:32:08.847Z,90.80
2022-12-14T05:36:11.009Z,91.30
2022-12-14T05:40:13.391Z,91.70
2022-12-14T05:44:15.080Z,91.50
2022-12-14T05:48:16.692Z,91.50
2022-12-14T05:52:18.457Z,91.60
2022-12-14T05:56:20.845Z,91.50
2022-12-14T06:00:22.611Z,91.50
2022-12-14T06:04:24.317Z,91.70
2022-12-14T06:08:26.036Z,91.80
2022-12-14T06:12:28.794Z,91.50
2022-12-14T06:16:30.499Z,91.80
2022-12-14T06:20:32.186Z,91.20
2022-12-14T06:24:33.872Z,90.90
2022-12-14T06:28:35.911Z,91.10
2022-12-14T06:32:37.527Z,90.90
2022-12-14T06:36:41.674Z,90.90
2022-12-14T06:40:43.554Z,90.90
2022-12-14T06:44:45.240Z,90.90
2022-12-14T06:48:54.698Z,90.70
2022-12-14T06:52:56.612Z,90.70
2022-12-14T06:56:58.308Z,90.90
2022-12-14T07:01:08.913Z,90.70
2022-12-14T07:05:10.715Z,90.90
2022-12-14T07:09:14.197Z,90.90
2022-12-14T07:13:15.832Z,90.90
2022-12-14T07:17:17.630Z,91.00
2022-12-14T07:21:20.741Z,91.40
2022-12-14T07:25:22.401Z,91.40
2022-12-14T07:29:24.054Z,91.00
2022-12-14T07:33:26.834Z,91.10
2022-12-14T07:37:28.756Z,91.50
2022-12-14T07:41:31.501Z,91.50
2022-12-14T07:45:33.166Z,91.50
2022-12-14T07:49:34.786Z,91.20
2022-12-14T07:53:38.480Z,91.30
2022-12-14T07:57:40.319Z,91.70
2022-12-14T08:01:43.538Z,91.80
2022-12-14T08:05:45.328Z,91.90
2022-12-14T08:09:47.998Z,92.00
2022-12-14T08:14:05.998Z,92.20
2022-12-14T08:18:07.679Z,92.00
2022-12-14T08:22:09.300Z,91.70
2022-12-14T08:26:10.964Z,91.70
2022-12-14T08:30:12.990Z,91.80
2022-12-14T08:34:20.703Z,91.40
2022-12-14T08:38:22.451Z,91.50
2022-12-14T08:42:24.127Z,91.50
2022-12-14T08:46:28.074Z,91.80
2022-12-14T08:50:30.000Z,92.10
2022-12-14T08:54:31.740Z,91.80
2022-12-14T08:58:34.673Z,91.60
2022-12-14T09:02:36.802Z,91.80
2022-12-14T09:06:39.522Z,92.30
2022-12-14T09:10:41.291Z,92.70
2022-12-14T09:14:46.482Z,92.60
2022-12-14T09:18:51.051Z,92.30
2022-12-14T09:22:52.869Z,92.70
2022-12-14T09:26:54.848Z,92.60
2022-12-14T09:30:58.244Z,92.90
2022-12-14T09:34:59.990Z,92.70
2022-12-14T09:39:02.177Z,92.50
2022-12-14T09:43:06.735Z,93.00
2022-12-14T09:47:13.030Z,93.10
2022-12-14T09:51:17.247Z,93.20
2022-12-14T09:55:21.848Z,92.80
2022-12-14T09:59:28.117Z,92.70
2022-12-14T10:04:06.772Z,92.60
2022-12-14T10:08:17.027Z,92.20
2022-12-14T10:12:39.039Z,92.70
2022-12-14T10:17:11.125Z,92.80
2022-12-14T10:21:20.393Z,93.10
2022-12-14T10:25:25.844Z,93.00
2022-12-14T10:29:41.350Z,93.30
2022-12-14T10:33:45.569Z,93.60
2022-12-14T10:38:13.343Z,93.30
2022-12-14T10:42:51.220Z,93.30
2022-12-14T10:47:11.815Z,93.40
2022-12-14T10:51:21.960Z,93.40
2022-12-14T10:55:27.725Z,93.30
2022-12-14T10:59:38.580Z,93.50
2022-12-14T11:03:43.806Z,93.80
2022-12-14T11:07:49.574Z,93.40
2022-12-14T11:12:03.580Z,93.60
2022-12-14T11:16:36.391Z,93.80
2022-12-14T11:20:49.448Z,93.60
2022-12-14T11:24:51.375Z,93.20
2022-12-14T11:28:56.435Z,93.60
2022-12-14T11:32:58.206Z,93.80
2022-12-14T11:37:22.498Z,93.80
2022-12-14T11:41:24.600Z,93.70
2022-12-14T11:45:26.262Z,93.80
2022-12-14T11:49:27.901Z,94.00
2022-12-14T11:53:29.567Z,94.50
2022-12-14T11:57:39.661Z,94.40
2022-12-14T12:01:42.527Z,94.20
2022-12-14T12:05:44.945Z,94.10
2022-12-14T12:09:46.654Z,93.90
2022-12-14T12:13:53.485Z,94.00
2022-12-14T12:18:28.850Z,94.10
2022-12-14T12:22:31.464Z,93.80
2022-12-14T12:26:50.089Z,94.20
2022-12-14T12:30:56.276Z,94.20
2022-12-14T12:35:11.807Z,94.00
2022-12-14T12:39:21.382Z,94.20
2022-12-14T12:43:31.967Z,94.20
2022-12-14T12:47:48.353Z,94.10
2022-12-14T12:51:58.698Z,94.00
2022-12-14T12:56:43.560Z,94.00
2022-12-14T13:00:55.550Z,94.30
2022-12-14T13:05:10.939Z,94.60
2022-12-14T13:09:24.590Z,94.50
2022-12-14T13:13:31.090Z,94.40
2022-12-14T13:17:32.671Z,94.20
2022-12-14T13:21:38.337Z,94.10
2022-12-14T13:25:58.151Z,94.20
2022-12-14T13:30:24.626Z,94.10
2022-12-14T13:34:29.256Z,94.00
2022-12-14T13:38:58.921Z,94.30
2022-12-14T13:43:19.330Z,94.10
2022-12-14T13:47:49.309Z,94.60
2022-12-14T13:51:52.355Z,94.70
2022-12-14T13:55:58.864Z,94.50
2022-12-14T14:00:01.915Z,94.40
2022-12-14T14:04:14.072Z,94.00
2022-12-14T14:08:41.378Z,94.50
2022-12-14T14:12:44.844Z,94.50
2022-12-14T14:16:57.026Z,94.50
2022-12-14T14:21:22.033Z,94.50
2022-12-14T14:25:40.220Z,94.80
2022-12-14T14:29:47.379Z,94.80
2022-12-14T14:33:55.904Z,94.70
2022-12-14T14:38:08.938Z,94.40
2022-12-14T14:42:20.882Z,94.20
2022-12-14T14:46:36.124Z,94.30
2022-12-14T14:50:42.374Z,94.20
2022-12-14T14:55:16.177Z,94.30
2022-12-14T14:59:14.803Z,94.40
2022-12-14T15:03:19.345Z,94.40
2022-12-14T15:07:29.864Z,94.20
2022-12-14T15:11:48.757Z,94.30
2022-12-14T15:15:53.078Z,94.30
2022-12-14T15:19:56.893Z,94.20
2022-12-14T15:23:58.556Z,94.20
2022-12-14T15:28:05.712Z,94.20
2022-12-14T15:32:07.552Z,94.40
2022-12-14T15:36:15.729Z,94.40
2022-12-14T15:40:30.191Z,94.60
2022-12-14T15:44:32.061Z,94.70
2022-12-14T15:48:35.218Z,94.60
2022-12-14T15:52:37.088Z,94.60
2022-12-14T15:56:50.973Z,94.80
2022-12-14T16:00:56.807Z,94.90
2022-12-14T16:05:02.132Z,95.00
2022-12-14T16:09:41.578Z,95.00
2022-12-14T16:13:44.951Z,94.90
2022-12-14T16:17:46.816Z,94.80
2022-12-14T16:22:05.070Z,94.80
2022-12-14T16:26:15.976Z,95.20
2022-12-14T16:30:33.021Z,95.30
2022-12-14T16:34:34.926Z,95.40
2022-12-14T16:38:56.125Z,95.30
2022-12-14T16:42:57.893Z,95.30
2022-12-14T16:47:02.667Z,95.20
2022-12-14T16:51:28.582Z,95.10
2022-12-14T16:56:01.464Z,95.10
2022-12-14T17:00:06.030Z,95.30
2022-12-14T17:04:09.368Z,95.80
2022-12-14T17:08:11.640Z,96.00
2022-12-14T17:12:15.429Z,95.80
2022-12-14T17:16:23.296Z,95.60
2022-12-14T17:20:36.727Z,95.80
2022-12-14T17:24:38.440Z,95.80
2022-12-14T17:28:40.128Z,96.20
2022-12-14T17:32:42.808Z,95.90
2022-12-14T17:36:45.598Z,95.60
2022-12-14T17:40:48.842Z,95.30
2022-12-14T17:44:54.434Z,95.30
2022-12-14T17:48:56.995Z,95.30
2022-12-14T17:53:00.265Z,95.00
2022-12-14T17:57:02.083Z,94.80
2022-12-14T18:01:04.557Z,94.90
2022-12-14T18:05:11.805Z,94.60
2022-12-14T18:09:13.484Z,94.50
2022-12-14T18:13:15.567Z,94.40
2022-12-14T18:17:17.272Z,94.30
2022-12-14T18:21:28.094Z,94.50
2022-12-14T18:25:34.177Z,94.60
2022-12-14T18:29:35.857Z,94.40
2022-12-14T18:33:38.921Z,94.60
2022-12-14T18:37:40.624Z,94.30
2022-12-14T18:41:42.540Z,94.30
2022-12-14T18:45:44.244Z,94.90
2022-12-14T18:49:45.942Z,94.80
2022-12-14T18:53:47.822Z,94.40
2022-12-14T18:57:50.811Z,94.60
2022-12-14T19:01:52.780Z,94.60
2022-12-14T19:10:40.219Z,94.20
2022-12-14T19:14:41.929Z,94.20
2022-12-14T19:18:43.591Z,95.40
2022-12-14T19:22:45.833Z,95.10
2022-12-14T19:26:49.503Z,95.70
2022-12-14T19:30:51.422Z,95.60
2022-12-14T19:34:53.384Z,95.00
2022-12-14T19:38:55.135Z,94.60
2022-12-14T19:42:58.090Z,94.40
2022-12-14T19:47:00.851Z,95.30
2022-12-14T19:51:08.580Z,95.00
2022-12-14T19:55:11.629Z,94.70
2022-12-14T19:59:13.346Z,96.30
2022-12-14T20:03:15.182Z,96.40
2022-12-14T20:07:17.080Z,95.60
2022-12-14T20:11:20.347Z,94.60
2022-12-14T20:15:22.044Z,95.70
2022-12-14T20:19:24.422Z,96.20
2022-12-14T20:23:26.076Z,95.60
2022-12-14T20:27:27.859Z,94.60
2022-12-14T20:31:29.721Z,94.50
2022-12-14T20:35:33.452Z,94.40
2022-12-14T20:39:35.123Z,94.10
2022-12-14T20:43:38.889Z,94.20
2022-12-14T20:47:40.563Z,94.00
2022-12-14T20:51:43.972Z,93.60
2022-12-14T20:55:45.678Z,93.70
2022-12-14T20:59:47.382Z,93.20
2022-12-14T21:03:50.656Z,93.40
2022-12-14T21:07:52.438Z,93.60
2022-12-14T21:12:12.801Z,93.50
2022-12-14T21:16:14.544Z,93.50
2022-12-14T21:20:16.422Z,93.30
2022-12-14T21:24:37.515Z,93.30
2022-12-14T21:28:40.424Z,93.20
2022-12-14T21:32:42.120Z,93.00
2022-12-14T21:36:44.068Z,93.00
2022-12-14T21:41:13.791Z,93.20
2022-12-14T21:45:15.473Z,93.30
2022-12-14T21:49:17.437Z,93.30
2022-12-14T21:53:19.136Z,93.40
2022-12-14T21:57:42.497Z,93.50
2022-12-14T22:01:44.792Z,93.70
2022-12-14T22:05:46.916Z,93.60
2022-12-14T22:09:49.593Z,93.60
2022-12-14T22:13:51.761Z,93.70
2022-12-14T22:17:53.403Z,93.50
2022-12-14T22:21:55.216Z,93.50
2022-12-14T22:25:57.305Z,93.30
2022-12-14T22:29:59.024Z,93.40
2022-12-14T22:34:01.277Z,93.50
2022-12-14T22:38:03.003Z,93.70
2022-12-14T22:42:04.906Z,93.40
2022-12-14T22:46:07.002Z,93.40
2022-12-14T22:50:09.212Z,93.50
2022-12-14T22:54:24.786Z,93.50
2022-12-14T22:58:28.767Z,93.60
2022-12-14T23:02:31.292Z,93.60
2022-12-14T23:06:33.952Z,93.80
2022-12-14T23:11:44.806Z,93.70
2022-12-14T23:17:00.853Z,93.70
2022-12-14T23:23:00.307Z,93.90
2022-12-14T23:28:03.628Z,94.00
2022-12-14T23:32:24.024Z,94.10
2022-12-14T23:36:44.140Z,94.10
2022-12-14T23:43:31.735Z,94.00
2022-12-14T23:47:52.584Z,94.40
2022-12-14T23:52:13.080Z,94.30
2022-12-14T23:56:33.570Z,94.20
